Aviation Digital Data Service (ADDS)

Output produced by METARs form (1857 UTC 26 March 2017)
found at http://aviationweather.gov/adds/metars/
 
KORH 261725Z 2618/2718 08008KT P6SM VCSH OVC060 
     FM262000 07007KT P6SM -RA OVC050 
     FM262200 07007KT P6SM VCSH OVC045 
     FM270100 09006KT P6SM OVC045 
     FM270500 10006KT P6SM -FZRA OVC035 
     FM270900 10006KT 3SM -FZRA OVC010 
     FM271200 09005KT 2SM -RA BR OVC008 
     FM271600 13005KT 2SM -RA BR OVC008